sensor_id;sensor_type;location;lat;lon;timestamp;pressure;altitude;pressure_sealevel;temperature;humidity
40650;BME280;26342;42.826;23.992;2024-01-11T00:00:40;96341.34;;;-7.51;100.00
40650;BME280;26342;42.826;23.992;2024-01-11T00:03:05;96344.44;;;-7.57;100.00
40650;BME280;26342;42.826;23.992;2024-01-11T00:05:31;96342.44;;;-7.65;100.00
40650;BME280;26342;42.826;23.992;2024-01-11T00:07:57;96337.88;;;-7.73;100.00
40650;BME280;26342;42.826;23.992;2024-01-11T00:10:23;96357.28;;;-7.67;100.00
40650;BME280;26342;42.826;23.992;2024-01-11T00:12:48;96350.31;;;-7.67;100.00
40650;BME280;26342;42.826;23.992;2024-01-11T00:15:13;96334.19;;;-7.70;100.00
40650;BME280;26342;42.826;23.992;2024-01-11T00:17:39;96334.94;;;-7.79;100.00
40650;BME280;26342;42.826;23.992;2024-01-11T00:20:05;96326.84;;;-7.97;100.00
40650;BME280;26342;42.826;23.992;2024-01-11T00:22:31;96335.28;;;-8.06;100.00
40650;BME280;26342;42.826;23.992;2024-01-11T00:24:57;96340.75;;;-8.21;100.00
40650;BME280;26342;42.826;23.992;2024-01-11T00:27:22;96341.78;;;-8.34;100.00
40650;BME280;26342;42.826;23.992;2024-01-11T00:29:48;96328.28;;;-8.49;100.00
40650;BME280;26342;42.826;23.992;2024-01-11T00:32:13;96330.97;;;-8.39;100.00
40650;BME280;26342;42.826;23.992;2024-01-11T00:34:38;96324.41;;;-8.43;100.00
40650;BME280;26342;42.826;23.992;2024-01-11T00:37:04;96308.97;;;-8.56;100.00
40650;BME280;26342;42.826;23.992;2024-01-11T00:39:29;96299.31;;;-8.65;100.00
40650;BME280;26342;42.826;23.992;2024-01-11T00:41:55;96313.00;;;-8.52;100.00
40650;BME280;26342;42.826;23.992;2024-01-11T00:44:20;96300.63;;;-8.49;100.00
40650;BME280;26342;42.826;23.992;2024-01-11T00:46:46;96311.91;;;-8.38;100.00
40650;BME280;26342;42.826;23.992;2024-01-11T00:49:11;96310.59;;;-8.33;100.00
40650;BME280;26342;42.826;23.992;2024-01-11T00:51:37;96307.41;;;-8.25;100.00
40650;BME280;26342;42.826;23.992;2024-01-11T00:54:02;96301.91;;;-8.21;100.00
40650;BME280;26342;42.826;23.992;2024-01-11T00:56:28;96306.56;;;-8.15;100.00
40650;BME280;26342;42.826;23.992;2024-01-11T00:58:53;96305.19;;;-8.19;100.00
40650;BME280;26342;42.826;23.992;2024-01-11T01:01:19;96311.66;;;-8.13;100.00
40650;BME280;26342;42.826;23.992;2024-01-11T01:03:45;96314.34;;;-8.15;100.00
40650;BME280;26342;42.826;23.992;2024-01-11T01:06:10;96309.16;;;-8.15;100.00
40650;BME280;26342;42.826;23.992;2024-01-11T01:08:35;96293.75;;;-8.16;100.00
40650;BME280;26342;42.826;23.992;2024-01-11T01:11:01;96305.03;;;-8.06;100.00
40650;BME280;26342;42.826;23.992;2024-01-11T01:13:26;96290.69;;;-8.10;100.00
40650;BME280;26342;42.826;23.992;2024-01-11T01:15:52;96293.41;;;-8.11;100.00
40650;BME280;26342;42.826;23.992;2024-01-11T01:18:17;96279.16;;;-8.17;100.00
40650;BME280;26342;42.826;23.992;2024-01-11T01:20:43;96285.41;;;-8.08;100.00
40650;BME280;26342;42.826;23.992;2024-01-11T01:23:08;96285.53;;;-8.10;100.00
40650;BME280;26342;42.826;23.992;2024-01-11T01:25:33;96265.88;;;-8.12;100.00
40650;BME280;26342;42.826;23.992;2024-01-11T01:27:59;96279.53;;;-8.10;100.00
40650;BME280;26342;42.826;23.992;2024-01-11T01:30:26;96273.41;;;-8.21;100.00
40650;BME280;26342;42.826;23.992;2024-01-11T01:32:51;96275.19;;;-8.21;100.00
40650;BME280;26342;42.826;23.992;2024-01-11T01:35:17;96265.66;;;-8.21;100.00
40650;BME280;26342;42.826;23.992;2024-01-11T01:37:42;96256.84;;;-8.29;100.00
40650;BME280;26342;42.826;23.992;2024-01-11T01:40:08;96261.75;;;-8.26;100.00
40650;BME280;26342;42.826;23.992;2024-01-11T01:42:34;96269.47;;;-8.36;100.00
40650;BME280;26342;42.826;23.992;2024-01-11T01:44:59;96253.78;;;-8.34;100.00
40650;BME280;26342;42.826;23.992;2024-01-11T01:47:26;96252.69;;;-8.32;100.00
40650;BME280;26342;42.826;23.992;2024-01-11T01:49:52;96257.88;;;-8.21;100.00
40650;BME280;26342;42.826;23.992;2024-01-11T01:52:19;96251.75;;;-8.20;100.00
40650;BME280;26342;42.826;23.992;2024-01-11T01:54:45;96242.44;;;-8.22;100.00
40650;BME280;26342;42.826;23.992;2024-01-11T01:57:13;96251.63;;;-8.18;100.00
40650;BME280;26342;42.826;23.992;2024-01-11T01:59:39;96246.09;;;-8.13;100.00
40650;BME280;26342;42.826;23.992;2024-01-11T02:02:05;96245.84;;;-8.22;100.00
40650;BME280;26342;42.826;23.992;2024-01-11T02:04:31;96240.34;;;-8.28;100.00
40650;BME280;26342;42.826;23.992;2024-01-11T02:06:57;96239.41;;;-8.27;100.00
40650;BME280;26342;42.826;23.992;2024-01-11T02:09:24;96239.63;;;-8.19;100.00
40650;BME280;26342;42.826;23.992;2024-01-11T02:11:53;96234.22;;;-8.27;100.00
40650;BME280;26342;42.826;23.992;2024-01-11T02:14:19;96232.94;;;-8.33;100.00
40650;BME280;26342;42.826;23.992;2024-01-11T02:16:45;96226.50;;;-8.38;100.00
40650;BME280;26342;42.826;23.992;2024-01-11T02:19:13;96218.28;;;-8.43;100.00
40650;BME280;26342;42.826;23.992;2024-01-11T02:21:42;96227.31;;;-8.38;100.00
40650;BME280;26342;42.826;23.992;2024-01-11T02:24:07;96224.97;;;-8.41;100.00
40650;BME280;26342;42.826;23.992;2024-01-11T02:26:33;96216.03;;;-8.37;100.00
40650;BME280;26342;42.826;23.992;2024-01-11T02:28:59;96212.72;;;-8.39;100.00
40650;BME280;26342;42.826;23.992;2024-01-11T02:31:24;96219.44;;;-8.36;100.00
40650;BME280;26342;42.826;23.992;2024-01-11T02:33:52;96215.31;;;-8.39;100.00
40650;BME280;26342;42.826;23.992;2024-01-11T02:36:19;96217.78;;;-8.37;100.00
40650;BME280;26342;42.826;23.992;2024-01-11T02:38:45;96207.56;;;-8.39;100.00
40650;BME280;26342;42.826;23.992;2024-01-11T02:41:11;96211.41;;;-8.33;100.00
40650;BME280;26342;42.826;23.992;2024-01-11T02:43:37;96209.38;;;-8.30;100.00
40650;BME280;26342;42.826;23.992;2024-01-11T02:46:03;96214.69;;;-8.31;100.00
40650;BME280;26342;42.826;23.992;2024-01-11T02:48:29;96208.38;;;-8.38;100.00
40650;BME280;26342;42.826;23.992;2024-01-11T02:50:56;96207.81;;;-8.42;100.00
40650;BME280;26342;42.826;23.992;2024-01-11T02:53:22;96212.59;;;-8.37;100.00
40650;BME280;26342;42.826;23.992;2024-01-11T02:55:48;96198.03;;;-8.38;100.00
40650;BME280;26342;42.826;23.992;2024-01-11T02:58:14;96207.44;;;-8.37;100.00
40650;BME280;26342;42.826;23.992;2024-01-11T03:00:39;96210.34;;;-8.31;100.00
40650;BME280;26342;42.826;23.992;2024-01-11T03:03:05;96179.81;;;-8.48;100.00
40650;BME280;26342;42.826;23.992;2024-01-11T03:05:31;96210.59;;;-8.34;100.00
40650;BME280;26342;42.826;23.992;2024-01-11T03:07:56;96215.50;;;-8.31;100.00
40650;BME280;26342;42.826;23.992;2024-01-11T03:10:22;96208.28;;;-8.37;100.00
40650;BME280;26342;42.826;23.992;2024-01-11T03:12:48;96211.56;;;-8.35;100.00
40650;BME280;26342;42.826;23.992;2024-01-11T03:15:15;96209.75;;;-8.34;100.00
40650;BME280;26342;42.826;23.992;2024-01-11T03:17:40;96208.97;;;-8.35;100.00
40650;BME280;26342;42.826;23.992;2024-01-11T03:20:06;96211.97;;;-8.30;100.00
40650;BME280;26342;42.826;23.992;2024-01-11T03:22:32;96206.03;;;-8.41;100.00
40650;BME280;26342;42.826;23.992;2024-01-11T03:24:58;96179.72;;;-8.58;100.00
40650;BME280;26342;42.826;23.992;2024-01-11T03:27:23;96202.50;;;-8.40;100.00
40650;BME280;26342;42.826;23.992;2024-01-11T03:29:49;96185.69;;;-8.46;100.00
40650;BME280;26342;42.826;23.992;2024-01-11T03:32:15;96183.44;;;-8.39;100.00
40650;BME280;26342;42.826;23.992;2024-01-11T03:34:40;96182.41;;;-8.48;100.00
40650;BME280;26342;42.826;23.992;2024-01-11T03:37:06;96190.50;;;-8.41;100.00
40650;BME280;26342;42.826;23.992;2024-01-11T03:39:33;96188.03;;;-8.43;100.00
40650;BME280;26342;42.826;23.992;2024-01-11T03:41:59;96187.66;;;-8.38;100.00
40650;BME280;26342;42.826;23.992;2024-01-11T03:44:24;96182.75;;;-8.41;100.00
40650;BME280;26342;42.826;23.992;2024-01-11T03:46:51;96172.63;;;-8.45;100.00
40650;BME280;26342;42.826;23.992;2024-01-11T03:49:16;96170.06;;;-8.45;100.00
40650;BME280;26342;42.826;23.992;2024-01-11T03:51:42;96144.66;;;-8.51;100.00
40650;BME280;26342;42.826;23.992;2024-01-11T03:54:07;96167.56;;;-8.35;100.00
40650;BME280;26342;42.826;23.992;2024-01-11T03:56:37;96165.09;;;-8.36;100.00
40650;BME280;26342;42.826;23.992;2024-01-11T03:59:02;96168.03;;;-8.41;100.00
40650;BME280;26342;42.826;23.992;2024-01-11T04:01:27;96169.16;;;-8.34;100.00
40650;BME280;26342;42.826;23.992;2024-01-11T04:03:53;96140.28;;;-8.50;100.00
40650;BME280;26342;42.826;23.992;2024-01-11T04:06:22;96161.34;;;-8.43;100.00
40650;BME280;26342;42.826;23.992;2024-01-11T04:08:49;96151.00;;;-8.43;100.00
40650;BME280;26342;42.826;23.992;2024-01-11T04:11:15;96155.66;;;-8.37;100.00
40650;BME280;26342;42.826;23.992;2024-01-11T04:13:40;96146.38;;;-8.40;100.00
40650;BME280;26342;42.826;23.992;2024-01-11T04:16:06;96127.34;;;-8.50;100.00
40650;BME280;26342;42.826;23.992;2024-01-11T04:18:32;96140.97;;;-8.37;100.00
40650;BME280;26342;42.826;23.992;2024-01-11T04:20:58;96141.78;;;-8.36;100.00
40650;BME280;26342;42.826;23.992;2024-01-11T04:23:24;96115.97;;;-8.59;100.00
40650;BME280;26342;42.826;23.992;2024-01-11T04:25:50;96136.84;;;-8.39;100.00
40650;BME280;26342;42.826;23.992;2024-01-11T04:28:17;96134.38;;;-8.41;100.00
40650;BME280;26342;42.826;23.992;2024-01-11T04:30:43;96135.91;;;-8.38;100.00
40650;BME280;26342;42.826;23.992;2024-01-11T04:33:09;96121.44;;;-8.41;100.00
40650;BME280;26342;42.826;23.992;2024-01-11T04:35:34;96121.56;;;-8.42;100.00
40650;BME280;26342;42.826;23.992;2024-01-11T04:38:00;96131.31;;;-8.46;100.00
40650;BME280;26342;42.826;23.992;2024-01-11T04:40:26;96119.94;;;-8.55;100.00
40650;BME280;26342;42.826;23.992;2024-01-11T04:42:51;96131.44;;;-8.48;100.00
40650;BME280;26342;42.826;23.992;2024-01-11T04:45:16;96135.59;;;-8.45;100.00
40650;BME280;26342;42.826;23.992;2024-01-11T04:47:42;96113.00;;;-8.54;100.00
40650;BME280;26342;42.826;23.992;2024-01-11T04:50:08;96138.03;;;-8.43;100.00
40650;BME280;26342;42.826;23.992;2024-01-11T04:52:34;96126.16;;;-8.46;100.00
40650;BME280;26342;42.826;23.992;2024-01-11T04:54:59;96130.03;;;-8.40;100.00
40650;BME280;26342;42.826;23.992;2024-01-11T04:57:25;96131.31;;;-8.46;100.00
40650;BME280;26342;42.826;23.992;2024-01-11T04:59:51;96140.13;;;-8.37;100.00
40650;BME280;26342;42.826;23.992;2024-01-11T05:02:16;96129.66;;;-8.36;100.00
40650;BME280;26342;42.826;23.992;2024-01-11T05:04:42;96125.47;;;-8.48;100.00
40650;BME280;26342;42.826;23.992;2024-01-11T05:07:08;96130.41;;;-8.45;100.00
40650;BME280;26342;42.826;23.992;2024-01-11T05:09:33;96107.50;;;-8.61;100.00
40650;BME280;26342;42.826;23.992;2024-01-11T05:11:59;96128.38;;;-8.41;100.00
40650;BME280;26342;42.826;23.992;2024-01-11T05:14:24;96124.16;;;-8.42;100.00
40650;BME280;26342;42.826;23.992;2024-01-11T05:16:50;96120.28;;;-8.48;100.00
40650;BME280;26342;42.826;23.992;2024-01-11T05:19:16;96126.75;;;-8.42;100.00
40650;BME280;26342;42.826;23.992;2024-01-11T05:21:41;96117.34;;;-8.55;100.00
40650;BME280;26342;42.826;23.992;2024-01-11T05:24:07;96120.53;;;-8.51;100.00
40650;BME280;26342;42.826;23.992;2024-01-11T05:26:33;96118.78;;;-8.62;100.00
40650;BME280;26342;42.826;23.992;2024-01-11T05:28:59;96118.28;;;-8.56;100.00
40650;BME280;26342;42.826;23.992;2024-01-11T05:31:24;96116.31;;;-8.52;100.00
40650;BME280;26342;42.826;23.992;2024-01-11T05:33:49;96116.31;;;-8.52;100.00
40650;BME280;26342;42.826;23.992;2024-01-11T05:36:15;96121.97;;;-8.58;100.00
40650;BME280;26342;42.826;23.992;2024-01-11T05:38:40;96120.44;;;-8.61;100.00
40650;BME280;26342;42.826;23.992;2024-01-11T05:41:06;96107.84;;;-8.65;100.00
40650;BME280;26342;42.826;23.992;2024-01-11T05:43:32;96116.09;;;-8.60;100.00
40650;BME280;26342;42.826;23.992;2024-01-11T05:45:58;96119.94;;;-8.55;100.00
40650;BME280;26342;42.826;23.992;2024-01-11T05:48:23;96119.81;;;-8.53;100.00
40650;BME280;26342;42.826;23.992;2024-01-11T05:50:50;96114.75;;;-8.55;100.00
40650;BME280;26342;42.826;23.992;2024-01-11T05:53:15;96114.75;;;-8.55;100.00
40650;BME280;26342;42.826;23.992;2024-01-11T05:55:42;96115.75;;;-8.67;100.00
40650;BME280;26342;42.826;23.992;2024-01-11T05:58:07;96112.69;;;-8.61;100.00
40650;BME280;26342;42.826;23.992;2024-01-11T06:00:33;96110.06;;;-8.50;100.00
40650;BME280;26342;42.826;23.992;2024-01-11T06:02:59;96104.19;;;-8.52;100.00
40650;BME280;26342;42.826;23.992;2024-01-11T06:05:26;96109.22;;;-8.50;100.00
40650;BME280;26342;42.826;23.992;2024-01-11T06:07:52;96105.81;;;-8.51;100.00
40650;BME280;26342;42.826;23.992;2024-01-11T06:10:17;96103.25;;;-8.51;100.00
40650;BME280;26342;42.826;23.992;2024-01-11T06:12:43;96088.75;;;-8.53;100.00
40650;BME280;26342;42.826;23.992;2024-01-11T06:15:08;96094.78;;;-8.53;100.00
40650;BME280;26342;42.826;23.992;2024-01-11T06:17:35;96091.59;;;-8.56;100.00
40650;BME280;26342;42.826;23.992;2024-01-11T06:20:01;96088.75;;;-8.53;100.00
40650;BME280;26342;42.826;23.992;2024-01-11T06:22:27;96086.81;;;-8.61;100.00
40650;BME280;26342;42.826;23.992;2024-01-11T06:24:53;96084.69;;;-8.67;100.00
40650;BME280;26342;42.826;23.992;2024-01-11T06:27:18;96071.53;;;-8.75;100.00
40650;BME280;26342;42.826;23.992;2024-01-11T06:29:43;96069.91;;;-8.76;100.00
40650;BME280;26342;42.826;23.992;2024-01-11T06:32:09;96063.78;;;-8.75;100.00
40650;BME280;26342;42.826;23.992;2024-01-11T06:34:35;96066.94;;;-8.72;100.00
40650;BME280;26342;42.826;23.992;2024-01-11T06:37:01;96044.03;;;-8.76;100.00
40650;BME280;26342;42.826;23.992;2024-01-11T06:39:28;96054.09;;;-8.62;100.00
40650;BME280;26342;42.826;23.992;2024-01-11T06:41:53;96061.84;;;-8.51;100.00
40650;BME280;26342;42.826;23.992;2024-01-11T06:44:18;96066.06;;;-8.50;100.00
40650;BME280;26342;42.826;23.992;2024-01-11T06:46:44;96067.34;;;-8.44;100.00
40650;BME280;26342;42.826;23.992;2024-01-11T06:49:09;96065.78;;;-8.35;100.00
40650;BME280;26342;42.826;23.992;2024-01-11T06:51:35;96049.53;;;-8.37;100.00
40650;BME280;26342;42.826;23.992;2024-01-11T06:54:00;96063.78;;;-8.22;100.00
40650;BME280;26342;42.826;23.992;2024-01-11T06:56:26;96063.91;;;-8.24;100.00
40650;BME280;26342;42.826;23.992;2024-01-11T06:58:52;96062.75;;;-8.20;100.00
40650;BME280;26342;42.826;23.992;2024-01-11T07:01:17;96052.38;;;-8.20;100.00
40650;BME280;26342;42.826;23.992;2024-01-11T07:03:43;96054.72;;;-8.17;100.00
40650;BME280;26342;42.826;23.992;2024-01-11T07:06:08;96056.81;;;-8.10;100.00
40650;BME280;26342;42.826;23.992;2024-01-11T07:08:34;96056.81;;;-8.10;100.00
40650;BME280;26342;42.826;23.992;2024-01-11T07:11:01;96049.03;;;-8.10;100.00
40650;BME280;26342;42.826;23.992;2024-01-11T07:13:30;96055.50;;;-8.05;100.00
40650;BME280;26342;42.826;23.992;2024-01-11T07:15:57;96048.78;;;-8.07;100.00
40650;BME280;26342;42.826;23.992;2024-01-11T07:18:23;96054.66;;;-8.05;100.00
40650;BME280;26342;42.826;23.992;2024-01-11T07:20:50;96056.19;;;-8.03;100.00
40650;BME280;26342;42.826;23.992;2024-01-11T07:23:16;96053.31;;;-8.00;100.00
40650;BME280;26342;42.826;23.992;2024-01-11T07:25:42;96050.25;;;-7.94;100.00
40650;BME280;26342;42.826;23.992;2024-01-11T07:28:08;96045.31;;;-7.97;100.00
40650;BME280;26342;42.826;23.992;2024-01-11T07:30:34;96054.34;;;-7.91;100.00
40650;BME280;26342;42.826;23.992;2024-01-11T07:32:59;96045.38;;;-7.87;100.00
40650;BME280;26342;42.826;23.992;2024-01-11T07:35:25;96033.50;;;-7.90;100.00
40650;BME280;26342;42.826;23.992;2024-01-11T07:37:52;96021.47;;;-7.91;100.00
40650;BME280;26342;42.826;23.992;2024-01-11T07:40:18;96038.28;;;-7.85;100.00
40650;BME280;26342;42.826;23.992;2024-01-11T07:42:43;96043.22;;;-7.82;100.00
40650;BME280;26342;42.826;23.992;2024-01-11T07:45:09;96042.97;;;-7.79;100.00
40650;BME280;26342;42.826;23.992;2024-01-11T07:47:39;96029.31;;;-7.81;100.00
40650;BME280;26342;42.826;23.992;2024-01-11T07:50:06;96024.84;;;-7.79;100.00
40650;BME280;26342;42.826;23.992;2024-01-11T07:52:38;96032.91;;;-7.72;100.00
40650;BME280;26342;42.826;23.992;2024-01-11T07:55:04;96023.88;;;-7.78;100.00
40650;BME280;26342;42.826;23.992;2024-01-11T07:57:38;96028.28;;;-7.69;100.00
40650;BME280;26342;42.826;23.992;2024-01-11T08:00:05;96028.97;;;-7.67;100.00
40650;BME280;26342;42.826;23.992;2024-01-11T08:02:33;96032.28;;;-7.65;100.00
40650;BME280;26342;42.826;23.992;2024-01-11T08:04:59;96015.09;;;-7.66;100.00
40650;BME280;26342;42.826;23.992;2024-01-11T08:07:25;96024.53;;;-7.55;100.00
40650;BME280;26342;42.826;23.992;2024-01-11T08:09:51;96014.22;;;-7.45;100.00
40650;BME280;26342;42.826;23.992;2024-01-11T08:12:17;96013.38;;;-7.46;100.00
40650;BME280;26342;42.826;23.992;2024-01-11T08:14:42;96007.41;;;-7.37;100.00
40650;BME280;26342;42.826;23.992;2024-01-11T08:17:08;96016.88;;;-7.26;100.00
40650;BME280;26342;42.826;23.992;2024-01-11T08:19:34;96006.69;;;-7.08;100.00
40650;BME280;26342;42.826;23.992;2024-01-11T08:22:00;96019.59;;;-6.68;100.00
40650;BME280;26342;42.826;23.992;2024-01-11T08:24:26;96011.28;;;-6.52;100.00
40650;BME280;26342;42.826;23.992;2024-01-11T08:26:51;95992.56;;;-6.36;100.00
40650;BME280;26342;42.826;23.992;2024-01-11T08:29:17;96005.91;;;-5.93;100.00
40650;BME280;26342;42.826;23.992;2024-01-11T08:31:45;96009.78;;;-5.59;100.00
40650;BME280;26342;42.826;23.992;2024-01-11T08:34:10;96007.66;;;-5.37;100.00
40650;BME280;26342;42.826;23.992;2024-01-11T08:36:36;96015.75;;;-5.12;100.00
40650;BME280;26342;42.826;23.992;2024-01-11T08:39:04;96006.59;;;-4.89;100.00
40650;BME280;26342;42.826;23.992;2024-01-11T08:41:33;95997.41;;;-4.65;100.00
40650;BME280;26342;42.826;23.992;2024-01-11T08:43:59;95997.72;;;-4.33;100.00
40650;BME280;26342;42.826;23.992;2024-01-11T08:46:28;95998.78;;;-4.00;100.00
40650;BME280;26342;42.826;23.992;2024-01-11T08:48:53;95993.81;;;-3.67;100.00
40650;BME280;26342;42.826;23.992;2024-01-11T08:51:19;95993.34;;;-3.37;100.00
40650;BME280;26342;42.826;23.992;2024-01-11T08:53:45;95991.03;;;-3.05;100.00
40650;BME280;26342;42.826;23.992;2024-01-11T08:56:10;95981.69;;;-2.66;100.00
40650;BME280;26342;42.826;23.992;2024-01-11T08:58:36;95975.53;;;-2.24;100.00
40650;BME280;26342;42.826;23.992;2024-01-11T09:01:02;95966.53;;;-1.81;100.00
40650;BME280;26342;42.826;23.992;2024-01-11T09:03:28;95942.44;;;-1.52;100.00
40650;BME280;26342;42.826;23.992;2024-01-11T09:05:53;95934.59;;;-1.13;100.00
40650;BME280;26342;42.826;23.992;2024-01-11T09:08:22;95954.97;;;-0.61;100.00
40650;BME280;26342;42.826;23.992;2024-01-11T09:10:48;95961.41;;;-0.17;100.00
40650;BME280;26342;42.826;23.992;2024-01-11T09:13:13;95948.00;;;0.15;100.00
40650;BME280;26342;42.826;23.992;2024-01-11T09:15:38;95945.72;;;0.50;100.00
40650;BME280;26342;42.826;23.992;2024-01-11T09:18:04;95940.94;;;0.83;100.00
40650;BME280;26342;42.826;23.992;2024-01-11T09:20:29;95932.63;;;1.16;100.00
40650;BME280;26342;42.826;23.992;2024-01-11T09:22:55;95917.50;;;1.54;100.00
40650;BME280;26342;42.826;23.992;2024-01-11T09:25:20;95917.94;;;2.00;100.00
40650;BME280;26342;42.826;23.992;2024-01-11T09:27:46;95912.97;;;2.40;100.00
40650;BME280;26342;42.826;23.992;2024-01-11T09:30:11;95903.25;;;2.82;100.00
40650;BME280;26342;42.826;23.992;2024-01-11T09:32:37;95906.25;;;3.13;100.00
40650;BME280;26342;42.826;23.992;2024-01-11T09:35:03;95887.47;;;3.43;100.00
40650;BME280;26342;42.826;23.992;2024-01-11T09:37:30;95893.59;;;3.70;100.00
40650;BME280;26342;42.826;23.992;2024-01-11T09:39:56;95873.13;;;3.91;100.00
40650;BME280;26342;42.826;23.992;2024-01-11T09:42:21;95873.75;;;4.27;100.00
40650;BME280;26342;42.826;23.992;2024-01-11T09:44:47;95870.19;;;4.66;100.00
40650;BME280;26342;42.826;23.992;2024-01-11T09:47:15;95867.03;;;5.02;100.00
40650;BME280;26342;42.826;23.992;2024-01-11T09:49:44;95864.91;;;5.24;100.00
40650;BME280;26342;42.826;23.992;2024-01-11T09:52:11;95858.69;;;5.43;100.00
40650;BME280;26342;42.826;23.992;2024-01-11T09:54:38;95847.34;;;5.68;96.74
40650;BME280;26342;42.826;23.992;2024-01-11T09:57:06;95842.75;;;5.81;89.93
40650;BME280;26342;42.826;23.992;2024-01-11T09:59:32;95845.63;;;5.80;91.14
40650;BME280;26342;42.826;23.992;2024-01-11T10:01:59;95834.56;;;5.89;93.38
40650;BME280;26342;42.826;23.992;2024-01-11T10:04:26;95825.75;;;6.21;93.65
40650;BME280;26342;42.826;23.992;2024-01-11T10:06:53;95814.31;;;6.27;90.66
40650;BME280;26342;42.826;23.992;2024-01-11T10:09:19;95824.56;;;6.41;87.61
40650;BME280;26342;42.826;23.992;2024-01-11T10:11:45;95822.44;;;6.50;90.03
40650;BME280;26342;42.826;23.992;2024-01-11T10:14:12;95818.22;;;6.61;86.06
40650;BME280;26342;42.826;23.992;2024-01-11T10:16:37;95807.53;;;6.67;86.46
40650;BME280;26342;42.826;23.992;2024-01-11T10:19:03;95812.19;;;6.90;89.38
40650;BME280;26342;42.826;23.992;2024-01-11T10:21:28;95807.06;;;7.07;84.82
40650;BME280;26342;42.826;23.992;2024-01-11T10:23:57;95795.19;;;7.10;80.27
40650;BME280;26342;42.826;23.992;2024-01-11T10:26:22;95794.25;;;7.04;79.80
40650;BME280;26342;42.826;23.992;2024-01-11T10:28:48;95795.19;;;7.10;84.86
40650;BME280;26342;42.826;23.992;2024-01-11T10:31:14;95791.63;;;7.16;79.28
40650;BME280;26342;42.826;23.992;2024-01-11T10:33:44;95797.66;;;7.23;86.48
40650;BME280;26342;42.826;23.992;2024-01-11T10:36:11;95793.53;;;7.27;84.20
40650;BME280;26342;42.826;23.992;2024-01-11T10:38:38;95788.09;;;7.52;76.79
40650;BME280;26342;42.826;23.992;2024-01-11T10:41:07;95780.22;;;7.45;70.13
40650;BME280;26342;42.826;23.992;2024-01-11T10:43:36;95771.19;;;7.35;66.58
40650;BME280;26342;42.826;23.992;2024-01-11T10:46:04;95761.69;;;7.27;70.74
40650;BME280;26342;42.826;23.992;2024-01-11T10:48:33;95763.34;;;7.40;66.35
40650;BME280;26342;42.826;23.992;2024-01-11T10:51:03;95763.00;;;7.48;67.52
40650;BME280;26342;42.826;23.992;2024-01-11T10:53:36;95745.69;;;7.57;65.90
40650;BME280;26342;42.826;23.992;2024-01-11T10:56:06;95740.66;;;7.67;64.13
40650;BME280;26342;42.826;23.992;2024-01-11T10:58:34;95745.50;;;7.70;62.97
40650;BME280;26342;42.826;23.992;2024-01-11T11:01:01;95737.88;;;7.74;61.10
40650;BME280;26342;42.826;23.992;2024-01-11T11:03:28;95720.09;;;7.63;62.34
40650;BME280;26342;42.826;23.992;2024-01-11T11:05:57;95719.88;;;7.76;59.24
40650;BME280;26342;42.826;23.992;2024-01-11T11:08:24;95711.06;;;7.64;58.62
40650;BME280;26342;42.826;23.992;2024-01-11T11:10:59;95719.72;;;7.47;56.57
40650;BME280;26342;42.826;23.992;2024-01-11T11:13:26;95708.28;;;7.35;61.53
40650;BME280;26342;42.826;23.992;2024-01-11T11:15:52;95709.38;;;7.16;59.55
40650;BME280;26342;42.826;23.992;2024-01-11T11:18:19;95706.78;;;6.97;59.22
40650;BME280;26342;42.826;23.992;2024-01-11T11:20:47;95686.69;;;6.90;62.11
40650;BME280;26342;42.826;23.992;2024-01-11T11:23:15;95687.50;;;6.90;62.83
40650;BME280;26342;42.826;23.992;2024-01-11T11:25:44;95692.47;;;6.68;66.95
40650;BME280;26342;42.826;23.992;2024-01-11T11:28:11;95693.81;;;6.59;70.10
40650;BME280;26342;42.826;23.992;2024-01-11T11:30:38;95691.28;;;6.34;68.86
40650;BME280;26342;42.826;23.992;2024-01-11T11:33:09;95697.91;;;6.07;75.38
40650;BME280;26342;42.826;23.992;2024-01-11T11:35:36;95690.72;;;5.89;85.58
40650;BME280;26342;42.826;23.992;2024-01-11T11:38:01;95686.47;;;5.88;84.38
40650;BME280;26342;42.826;23.992;2024-01-11T11:40:37;95681.78;;;5.65;91.35
40650;BME280;26342;42.826;23.992;2024-01-11T11:43:08;95687.28;;;5.45;91.86
40650;BME280;26342;42.826;23.992;2024-01-11T11:45:35;95678.44;;;5.01;95.87
40650;BME280;26342;42.826;23.992;2024-01-11T11:51:16;95673.03;;;4.90;100.00
40650;BME280;26342;42.826;23.992;2024-01-11T11:53:42;95670.03;;;4.80;100.00
40650;BME280;26342;42.826;23.992;2024-01-11T11:56:09;95663.59;;;4.69;100.00
40650;BME280;26342;42.826;23.992;2024-01-11T11:58:35;95659.97;;;4.63;100.00
40650;BME280;26342;42.826;23.992;2024-01-11T12:01:02;95643.00;;;4.46;100.00
40650;BME280;26342;42.826;23.992;2024-01-11T12:03:33;95639.50;;;4.52;100.00
40650;BME280;26342;42.826;23.992;2024-01-11T12:06:00;95638.16;;;4.43;100.00
40650;BME280;26342;42.826;23.992;2024-01-11T12:08:26;95628.22;;;4.32;100.00
40650;BME280;26342;42.826;23.992;2024-01-11T12:10:53;95641.28;;;4.27;100.00
40650;BME280;26342;42.826;23.992;2024-01-11T12:13:19;95627.75;;;4.03;100.00
40650;BME280;26342;42.826;23.992;2024-01-11T12:15:45;95635.06;;;4.01;100.00
40650;BME280;26342;42.826;23.992;2024-01-11T12:18:11;95623.13;;;3.92;100.00
40650;BME280;26342;42.826;23.992;2024-01-11T12:20:36;95628.19;;;3.93;100.00
40650;BME280;26342;42.826;23.992;2024-01-11T12:23:02;95618.47;;;3.87;100.00
40650;BME280;26342;42.826;23.992;2024-01-11T12:25:28;95613.81;;;3.83;100.00
40650;BME280;26342;42.826;23.992;2024-01-11T12:27:54;95616.91;;;3.73;100.00
40650;BME280;26342;42.826;23.992;2024-01-11T12:30:26;95606.97;;;3.62;100.00
40650;BME280;26342;42.826;23.992;2024-01-11T12:32:55;95607.19;;;3.60;100.00
40650;BME280;26342;42.826;23.992;2024-01-11T12:35:22;95582.88;;;3.39;100.00
40650;BME280;26342;42.826;23.992;2024-01-11T12:37:55;95594.00;;;3.47;100.00
40650;BME280;26342;42.826;23.992;2024-01-11T12:40:21;95595.03;;;3.46;100.00
40650;BME280;26342;42.826;23.992;2024-01-11T12:42:47;95588.94;;;3.46;100.00